createdAt,value
2022-12-16T00:18:44.911Z,17.9
2022-12-16T00:38:44.877Z,17.8
2022-12-16T00:58:44.839Z,17.8
2022-12-16T01:18:44.793Z,17.7
2022-12-16T01:38:44.722Z,17.6
2022-12-16T01:58:44.735Z,17.6
2022-12-16T02:18:44.664Z,17.5
2022-12-16T02:38:44.602Z,17.5
2022-12-16T02:58:44.501Z,17.4
2022-12-16T03:18:44.467Z,17.4
2022-12-16T03:38:44.461Z,17.3
2022-12-16T03:58:44.472Z,17.3
2022-12-16T04:18:44.408Z,17.4
2022-12-16T04:38:44.400Z,17.7
2022-12-16T04:58:44.382Z,17.8
2022-12-16T05:18:44.362Z,18.1
2022-12-16T05:38:44.302Z,18.3
2022-12-16T05:58:44.290Z,18.5
2022-12-16T06:18:44.254Z,18.6
2022-12-16T06:38:44.273Z,18.7
2022-12-16T06:58:44.218Z,18.8
2022-12-16T07:18:44.288Z,18.9
2022-12-16T07:38:44.201Z,19.0
2022-12-16T07:58:44.378Z,19.1
2022-12-16T08:18:44.319Z,19.1
2022-12-16T08:38:44.131Z,19.1
2022-12-16T08:58:44.297Z,19.2
2022-12-16T09:18:44.266Z,19.3
2022-12-16T09:38:44.287Z,19.3
2022-12-16T09:58:44.211Z,19.3
2022-12-16T10:18:44.167Z,19.3
2022-12-16T10:38:43.971Z,19.3
2022-12-16T10:58:43.955Z,19.3
2022-12-16T11:18:43.934Z,19.3
2022-12-16T11:38:44.105Z,19.4
2022-12-16T11:58:44.040Z,19.4
2022-12-16T12:18:43.997Z,19.4
2022-12-16T12:38:43.967Z,19.4
2022-12-16T12:58:44.005Z,19.4
2022-12-16T13:18:43.966Z,19.4
2022-12-16T13:38:43.754Z,19.4
2022-12-16T13:58:43.712Z,19.4
2022-12-16T14:18:43.687Z,19.4
2022-12-16T14:38:43.645Z,19.5
2022-12-16T14:58:43.655Z,19.4
2022-12-16T15:18:43.601Z,19.5
2022-12-16T15:38:43.577Z,19.5
2022-12-16T15:58:43.599Z,19.5
2022-12-16T16:18:43.559Z,19.5
2022-12-16T16:38:43.513Z,19.5
2022-12-16T16:58:43.506Z,19.8
2022-12-16T17:18:43.451Z,19.8
2022-12-16T17:38:43.410Z,19.8
2022-12-16T17:58:43.421Z,19.8
2022-12-16T18:18:43.362Z,19.7
2022-12-16T18:38:43.360Z,19.8
2022-12-16T18:58:43.302Z,19.8
2022-12-16T19:18:43.323Z,19.7
2022-12-16T19:38:43.284Z,19.6
2022-12-16T19:58:43.271Z,19.4
2022-12-16T20:18:43.285Z,19.2
2022-12-16T20:38:43.250Z,19.0
2022-12-16T20:58:43.187Z,18.9
2022-12-16T21:18:43.189Z,18.8
2022-12-16T21:38:43.133Z,18.6
2022-12-16T21:58:43.139Z,18.5
2022-12-16T22:18:43.090Z,18.4
2022-12-16T22:38:43.059Z,18.3
2022-12-16T22:58:43.136Z,18.1
2022-12-16T23:18:43.120Z,18.0
2022-12-16T23:38:43.052Z,17.9
